Clinton, South Carolina
Current Conditions -  °F | °C
As of 5:35 AM on Monday 22 Dec 2014 (Local Time) from KLUX Reporting Station
Haze Haze  
Wind Chill: 37°   Ceiling: 300
Heat Index: 43°   Visibility: 4mi
Dew Point: 43°   Wind: 9mph
Humidity: 100%   Direction: 50°NE
Pressure: 30.08"   Gusts: NA
Location:  34.47°N, 81.88°W
Report Text: KLUX 221035Z AUTO 05008KT 4SM BR OVC003 06/06 A3008 RMK AO2
Loading
Personal Weather Stations






























Interactive Weather Map New forecast layout! Learn more

10-Day Weather Forecast

Advertisements
Track Severe Weather on mobile